Time;durP1;ratioP1;P1;durP2;ratioP2;P2;SDS_P1;SDS_P2;PMS_P1;PMS_P2;Temp;Humidity;BMP_temperature;BMP_pressure;BME280_temperature;BME280_humidity;BME280_pressure;Samples;Min_cycle;Max_cycle;Signal;HPM_P1;HPM_P2
2023/09/03 00:00:53;;;;;;;82.78;78.95;;;;;;;25.74;68.41;99225.91;4956918;28;103263;-75
2023/09/03 00:03:21;;;;;;;54.13;51.38;;;;;;;26.47;67.04;99230.84;4963161;28;103236;-75
2023/09/03 00:05:49;;;;;;;38.25;36.47;;;;;;;26.98;64.37;99222.34;4963856;28;103182;-76
2023/09/03 00:08:19;;;;;;;32.33;30.83;;;;;;;27.21;62.64;99216.59;4963136;28;103681;-75
2023/09/03 00:10:49;;;;;;;34.42;32.53;;;;;;;26.72;62.79;99222.25;4964422;28;103697;-76
2023/09/03 00:13:17;;;;;;;51.53;48.83;;;;;;;26.10;66.65;99216.81;4964800;28;103289;-75
2023/09/03 00:15:45;;;;;;;54.33;51.73;;;;;;;26.23;66.79;99214.22;4964946;28;103038;-75
2023/09/03 00:18:16;;;;;;;40.95;38.95;;;;;;;26.77;64.38;99214.34;4965303;28;103061;-76
2023/09/03 00:20:56;;;;;;;35.67;33.92;;;;;;;26.97;63.42;99221.56;4964028;28;104011;-76
2023/09/03 00:23:26;;;;;;;55.80;53.03;;;;;;;25.80;67.55;99227.81;4968668;28;103730;-75
2023/09/03 00:25:56;;;;;;;116.35;111.20;;;;;;;25.47;70.46;99232.09;4963314;28;104473;-75
2023/09/03 00:28:24;;;;;;;51.90;49.40;;;;;;;26.55;65.93;99226.31;4965534;28;103965;-77
2023/09/03 00:31:03;;;;;;;38.80;36.95;;;;;;;26.95;64.23;99228.19;4963610;28;103245;-76
2023/09/03 00:33:31;;;;;;;42.95;40.85;;;;;;;26.19;65.74;99226.50;4964460;28;103519;-75
2023/09/03 00:36:00;;;;;;;47.63;45.22;;;;;;;26.47;65.84;99230.03;4961202;28;102927;-77
2023/09/03 00:38:29;;;;;;;45.00;42.65;;;;;;;26.37;65.03;99230.38;4965158;28;103010;-76
2023/09/03 00:40:58;;;;;;;45.78;43.47;;;;;;;26.46;65.02;99233.75;4963706;28;103944;-77
2023/09/03 00:43:25;;;;;;;43.30;41.22;;;;;;;26.53;64.25;99234.63;4938168;28;103278;-77
2023/09/03 00:45:54;;;;;;;43.63;41.53;;;;;;;26.41;64.79;99233.53;4957474;28;103204;-75
2023/09/03 00:48:26;;;;;;;73.28;69.88;;;;;;;25.93;67.37;99233.38;4963528;28;102793;-76
2023/09/03 00:51:02;;;;;;;79.03;75.28;;;;;;;25.94;67.93;99235.03;4963994;28;103622;-75
2023/09/03 00:53:32;;;;;;;58.55;55.85;;;;;;;26.14;66.39;99246.03;4962163;28;103808;-77
2023/09/03 00:56:00;;;;;;;42.60;40.72;;;;;;;26.65;64.29;99238.44;4960174;28;102779;-78
2023/09/03 00:58:31;;;;;;;39.92;38.10;;;;;;;26.60;63.26;99237.38;4962896;28;102894;-78
2023/09/03 01:00:59;;;;;;;37.88;36.03;;;;;;;26.47;63.84;99240.88;4963854;28;103381;-77
2023/09/03 01:03:27;;;;;;;37.10;35.40;;;;;;;26.77;62.78;99239.56;4970309;28;103172;-76
2023/09/03 01:05:55;;;;;;;37.17;35.40;;;;;;;26.49;63.45;99238.78;4968742;28;103468;-76
2023/09/03 01:08:25;;;;;;;95.63;91.35;;;;;;;25.26;68.73;99232.06;4964507;28;103052;-76
2023/09/03 01:11:05;;;;;;;68.20;64.88;;;;;;;25.82;66.85;99236.59;4960616;28;103549;-77
2023/09/03 01:13:39;;;;;;;118.03;112.70;;;;;;;25.10;70.14;99252.03;4962220;28;104451;-76
2023/09/03 01:16:23;;;;;;;138.18;132.20;;;;;;;24.96;71.47;99258.31;4960871;28;103869;-77
2023/09/03 01:18:53;;;;;;;98.32;93.78;;;;;;;25.12;70.59;99251.88;4959524;28;102818;-77
2023/09/03 01:21:44;;;;;;;75.55;72.10;;;;;;;25.40;69.14;99247.41;4958607;28;104734;-77
2023/09/03 01:24:46;;;;;;;154.38;147.82;;;;;;;24.77;72.39;99246.22;4961004;28;103428;-77
2023/09/03 01:27:26;;;;;;;218.75;209.93;;;;;;;24.86;73.16;99256.94;4936606;28;102838;-76
2023/09/03 01:29:56;;;;;;;128.65;122.57;;;;;;;25.02;71.45;99254.00;4963454;28;103739;-76
2023/09/03 01:32:25;;;;;;;134.63;128.65;;;;;;;24.84;72.71;99262.53;4959741;28;103254;-76
2023/09/03 01:34:57;;;;;;;172.45;164.77;;;;;;;24.78;73.22;99257.84;4960488;28;103126;-77
2023/09/03 01:37:25;;;;;;;128.43;122.35;;;;;;;25.31;71.55;99260.22;4944362;28;103229;-77
2023/09/03 01:39:53;;;;;;;147.05;139.98;;;;;;;24.86;73.11;99265.03;4963080;28;102941;-77
2023/09/03 01:42:21;;;;;;;75.40;71.75;;;;;;;25.79;69.17;99272.19;4945010;28;103255;-77
2023/09/03 01:44:49;;;;;;;51.83;49.53;;;;;;;26.18;67.06;99274.41;4959531;28;103312;-77
2023/09/03 01:47:28;;;;;;;54.35;51.65;;;;;;;26.17;66.06;99277.28;4961868;28;102785;-76
2023/09/03 01:50:07;;;;;;;50.95;48.53;;;;;;;26.21;64.47;99275.88;4962061;28;104154;-77
2023/09/03 01:52:41;;;;;;;39.70;37.90;;;;;;;26.43;63.86;99289.19;4964381;28;103309;-76
2023/09/03 01:55:12;;;;;;;33.30;31.80;;;;;;;26.56;62.65;99283.00;4961230;28;103377;-75
2023/09/03 01:57:44;;;;;;;32.03;30.47;;;;;;;26.68;62.13;99281.41;4958264;28;103705;-78
2023/09/03 02:00:16;;;;;;;39.43;37.50;;;;;;;26.53;62.25;99282.59;4962571;28;103267;-77
2023/09/03 02:02:48;;;;;;;39.97;38.00;;;;;;;26.08;62.87;99276.56;4965998;28;103390;-77
2023/09/03 02:05:16;;;;;;;43.67;41.47;;;;;;;26.03;64.51;99280.91;4961087;28;103458;-77
2023/09/03 02:07:44;;;;;;;37.93;35.97;;;;;;;26.29;63.42;99286.56;4943043;28;103355;-77
2023/09/03 02:10:12;;;;;;;47.72;45.22;;;;;;;25.35;66.56;99298.50;4963526;28;104101;-78
2023/09/03 02:12:40;;;;;;;104.88;100.13;;;;;;;24.77;70.20;99304.81;4946621;28;104081;-76
2023/09/03 02:15:09;;;;;;;66.20;63.03;;;;;;;25.52;68.39;99307.25;4954607;28;103430;-77
2023/09/03 02:17:36;;;;;;;46.60;44.20;;;;;;;25.82;66.20;99298.84;4955503;28;104396;-77
2023/09/03 02:20:07;;;;;;;40.10;38.20;;;;;;;26.21;64.50;99297.56;4962693;28;104228;-76
2023/09/03 02:22:35;;;;;;;32.77;31.37;;;;;;;26.36;63.25;99299.13;4943194;28;104021;-77
2023/09/03 02:25:06;;;;;;;32.10;30.58;;;;;;;26.29;62.55;99297.41;4961880;28;103453;-78
2023/09/03 02:27:36;;;;;;;37.03;35.20;;;;;;;26.06;63.15;99296.75;4958098;28;102662;-77
2023/09/03 02:30:08;;;;;;;45.10;42.80;;;;;;;25.26;65.81;99305.88;4946756;28;103071;-76
2023/09/03 02:32:36;;;;;;;99.57;94.97;;;;;;;24.37;70.35;99303.38;4966036;28;103385;-76
2023/09/03 02:35:06;;;;;;;93.30;89.07;;;;;;;24.96;68.80;99308.81;4970816;28;103634;-77
2023/09/03 02:37:37;;;;;;;79.05;75.20;;;;;;;25.13;68.48;99310.28;4956909;28;103324;-78
2023/09/03 02:40:06;;;;;;;52.72;50.17;;;;;;;25.49;67.13;99297.66;4966998;28;103173;-78
2023/09/03 02:42:34;;;;;;;43.00;41.00;;;;;;;25.86;64.77;99294.72;4949524;28;103651;-77
2023/09/03 02:45:02;;;;;;;38.27;36.17;;;;;;;25.78;63.57;99300.25;4960477;28;103385;-76
2023/09/03 02:47:30;;;;;;;36.97;35.15;;;;;;;25.81;63.90;99305.28;4956311;28;103892;-77
2023/09/03 02:49:58;;;;;;;42.97;40.75;;;;;;;25.03;65.64;99310.59;4962984;28;102931;-77
2023/09/03 02:52:27;;;;;;;120.82;115.22;;;;;;;24.29;71.15;99310.72;4960590;28;104179;-78
2023/09/03 02:54:55;;;;;;;70.80;67.20;;;;;;;24.88;68.46;99317.88;4960308;28;104074;-77
2023/09/03 02:57:25;;;;;;;64.30;60.90;;;;;;;25.03;67.26;99317.88;4961909;28;103064;-78
2023/09/03 02:59:53;;;;;;;51.30;48.45;;;;;;;25.20;65.90;99322.91;4958845;28;103230;-76
2023/09/03 03:02:21;;;;;;;48.83;45.90;;;;;;;25.00;66.03;99320.94;4963704;28;103379;-76
2023/09/03 03:04:49;;;;;;;79.15;75.13;;;;;;;24.45;69.11;99316.78;4963248;28;103585;-77
2023/09/03 03:07:17;;;;;;;75.40;71.43;;;;;;;24.64;69.01;99320.84;4965730;28;103370;-76
2023/09/03 03:09:50;;;;;;;59.50;56.38;;;;;;;25.29;66.66;99304.69;4961728;28;104343;-77
2023/09/03 03:12:19;;;;;;;40.27;38.23;;;;;;;25.56;65.03;99306.69;4965504;28;104573;-76
2023/09/03 03:14:49;;;;;;;41.10;39.00;;;;;;;25.58;64.72;99304.63;4966557;28;103639;-76
2023/09/03 03:17:20;;;;;;;76.30;72.33;;;;;;;23.92;71.28;99320.44;4929568;28;103384;-77
2023/09/03 03:19:50;;;;;;;133.73;127.67;;;;;;;24.15;71.90;99317.75;4961864;28;103171;-77
2023/09/03 03:22:19;;;;;;;173.32;165.60;;;;;;;23.51;75.31;99319.06;4963420;28;103812;-77
2023/09/03 03:24:50;;;;;;;122.60;116.70;;;;;;;24.19;72.15;99319.09;4948910;28;103217;-77
2023/09/03 03:27:18;;;;;;;91.22;86.72;;;;;;;24.71;70.48;99311.78;4964883;28;102621;-77
2023/09/03 03:29:46;;;;;;;69.22;65.53;;;;;;;25.01;68.42;99325.34;4958512;28;104253;-76
2023/09/03 03:32:14;;;;;;;67.78;64.32;;;;;;;24.72;68.18;99329.69;4960518;28;104140;-77
2023/09/03 03:34:50;;;;;;;106.75;101.72;;;;;;;24.31;70.41;99325.69;4966415;28;103164;-76
2023/09/03 03:37:18;;;;;;;185.25;176.95;;;;;;;23.04;76.67;99329.91;4965496;28;102610;-76
2023/09/03 03:39:50;;;;;;;218.87;208.93;;;;;;;22.81;79.11;99345.13;4961644;28;103882;-76
2023/09/03 03:42:20;;;;;;;194.20;185.33;;;;;;;24.05;75.39;99336.91;4946326;28;103730;-77
2023/09/03 03:44:48;;;;;;;82.82;79.03;;;;;;;24.92;71.16;99339.97;4962939;28;105575;-77
2023/09/03 03:47:16;;;;;;;58.47;55.87;;;;;;;25.29;69.20;99331.75;4963202;28;103727;-76
2023/09/03 03:49:44;;;;;;;51.22;48.92;;;;;;;25.49;66.87;99338.22;4942006;28;105076;-76
2023/09/03 03:52:12;;;;;;;48.40;46.03;;;;;;;25.32;65.19;99336.75;4962385;28;103443;-77
2023/09/03 03:54:40;;;;;;;103.57;98.77;;;;;;;23.64;73.05;99344.44;4965251;28;103223;-76
2023/09/03 03:57:09;;;;;;;147.65;140.85;;;;;;;23.76;73.68;99347.56;4964713;28;102929;-76
2023/09/03 03:59:37;;;;;;;141.73;135.17;;;;;;;24.27;72.38;99348.72;4945797;28;104527;-76
2023/09/03 04:02:07;;;;;;;66.47;63.03;;;;;;;24.88;68.64;99349.47;4963341;28;103692;-76
2023/09/03 04:04:35;;;;;;;70.28;66.50;;;;;;;24.61;68.29;99349.06;4963283;28;103195;-77
2023/09/03 04:07:03;;;;;;;74.95;71.40;;;;;;;24.36;69.83;99350.31;4964244;28;103474;-76
2023/09/03 04:09:31;;;;;;;105.38;100.28;;;;;;;24.27;71.25;99355.97;4963191;28;102845;-76
2023/09/03 04:11:59;;;;;;;92.23;87.87;;;;;;;24.40;70.51;99362.41;4946525;28;103689;-77
2023/09/03 04:14:28;;;;;;;103.00;98.22;;;;;;;24.55;70.70;99360.59;4963626;28;104161;-76
2023/09/03 04:16:56;;;;;;;141.40;134.85;;;;;;;24.07;72.81;99361.00;4963546;28;102678;-76
2023/09/03 04:19:23;;;;;;;185.95;177.20;;;;;;;23.14;77.16;99368.25;4966561;28;102977;-77
2023/09/03 04:21:51;;;;;;;406.97;390.83;;;;;;;23.56;76.92;99367.91;4964031;28;104531;-76
2023/09/03 04:24:20;;;;;;;296.10;284.90;;;;;;;23.80;75.12;99375.03;4964207;28;103335;-75
2023/09/03 04:26:48;;;;;;;246.37;237.00;;;;;;;23.91;75.05;99364.66;4960722;28;103847;-77
2023/09/03 04:29:15;;;;;;;103.70;99.78;;;;;;;24.91;71.26;99371.56;4962012;28;104093;-76
2023/09/03 04:31:45;;;;;;;152.23;145.98;;;;;;;25.23;68.96;99373.03;4960568;28;104973;-75
2023/09/03 04:34:13;;;;;;;179.90;172.57;;;;;;;25.24;67.03;99378.25;4961839;28;103500;-75
2023/09/03 04:36:42;;;;;;;204.60;196.00;;;;;;;25.07;66.27;99374.06;4963158;28;102727;-75
2023/09/03 04:39:11;;;;;;;222.80;213.80;;;;;;;25.39;65.76;99375.53;4958251;28;103855;-75
2023/09/03 04:41:40;;;;;;;210.25;201.65;;;;;;;25.30;65.22;99382.06;4946807;28;103790;-75
2023/09/03 04:44:10;;;;;;;220.87;211.77;;;;;;;25.51;64.41;99379.47;4959604;28;103747;-75
2023/09/03 04:46:42;;;;;;;212.10;203.50;;;;;;;25.68;63.33;99380.94;4963385;28;102844;-74
2023/09/03 04:49:11;;;;;;;230.32;221.07;;;;;;;25.71;62.92;99380.50;4962631;28;103926;-75
2023/09/03 04:51:39;;;;;;;220.70;211.73;;;;;;;25.75;62.51;99384.53;4966384;28;104199;-75
2023/09/03 04:54:07;;;;;;;184.13;176.85;;;;;;;25.82;61.90;99384.63;4966241;28;103062;-74
2023/09/03 04:56:35;;;;;;;187.32;180.07;;;;;;;25.86;61.76;99389.44;4961524;28;103776;-76
2023/09/03 04:59:04;;;;;;;157.70;151.23;;;;;;;24.47;67.10;99394.94;4961270;28;104039;-75
2023/09/03 05:01:33;;;;;;;161.67;155.17;;;;;;;24.16;69.27;99408.53;4944635;28;105388;-76
2023/09/03 05:04:03;;;;;;;228.30;219.70;;;;;;;23.49;73.99;99402.00;4945136;28;103225;-76
2023/09/03 05:06:32;;;;;;;223.87;215.27;;;;;;;24.01;72.44;99415.69;4944529;28;103750;-75
2023/09/03 05:09:00;;;;;;;161.63;155.23;;;;;;;24.61;70.17;99411.19;4952121;28;103134;-75
2023/09/03 05:11:29;;;;;;;150.97;144.80;;;;;;;24.87;68.33;99418.06;4959959;28;103371;-75
2023/09/03 05:13:58;;;;;;;160.13;153.73;;;;;;;24.67;69.30;99418.53;4964839;28;103332;-76
2023/09/03 05:16:28;;;;;;;190.15;182.75;;;;;;;23.99;72.77;99423.13;4942891;28;104062;-80
2023/09/03 05:19:04;;;;;;;179.10;172.07;;;;;;;24.03;72.73;99427.97;4963314;28;103974;-75
2023/09/03 05:21:33;;;;;;;209.32;201.38;;;;;;;23.52;76.08;99442.09;4960162;28;103958;-78
2023/09/03 05:24:02;;;;;;;268.08;258.10;;;;;;;22.74;80.68;99441.09;4961438;28;104089;-77
2023/09/03 05:26:32;;;;;;;289.92;278.67;;;;;;;22.54;82.62;99444.09;4945289;28;102624;-77
2023/09/03 05:29:00;;;;;;;421.10;403.73;;;;;;;23.02;81.15;99439.69;4961077;28;103006;-76
2023/09/03 05:31:30;;;;;;;368.08;354.00;;;;;;;23.90;77.51;99441.22;4971353;28;103862;-76
2023/09/03 05:33:59;;;;;;;323.90;311.65;;;;;;;23.63;77.54;99439.84;4963870;28;103056;-83
2023/09/03 05:36:28;;;;;;;233.50;224.88;;;;;;;24.55;74.57;99432.69;4944533;28;103966;-77
2023/09/03 05:38:57;;;;;;;144.75;139.30;;;;;;;25.09;72.45;99436.91;4943347;28;103032;-75
2023/09/03 05:41:25;;;;;;;100.82;97.03;;;;;;;25.50;70.53;99431.88;4942488;28;103234;-77
2023/09/03 05:43:53;;;;;;;114.22;109.82;;;;;;;25.61;69.03;99434.09;4960090;28;103436;-77
2023/09/03 05:46:22;;;;;;;133.05;128.00;;;;;;;25.85;68.21;99428.34;4942173;28;102946;-85
2023/09/03 05:48:51;;;;;;;173.40;166.60;;;;;;;26.07;66.76;99433.81;4959771;28;103236;-75
2023/09/03 05:51:19;;;;;;;191.87;184.37;;;;;;;26.20;65.86;99439.38;4965039;28;103913;-75
2023/09/03 05:53:47;;;;;;;181.75;174.65;;;;;;;25.92;66.46;99432.00;4958278;28;103132;-75
2023/09/03 05:56:16;;;;;;;207.65;199.95;;;;;;;26.33;64.66;99436.84;4961525;28;102966;-75
2023/09/03 05:58:47;;;;;;;230.13;221.45;;;;;;;26.37;63.91;99425.41;4945796;28;102892;-76
2023/09/03 06:01:15;;;;;;;219.33;211.13;;;;;;;26.57;63.63;99425.56;4961499;28;103234;-77
2023/09/03 06:03:43;;;;;;;222.47;213.97;;;;;;;26.70;63.17;99420.25;4956566;28;104028;-77
2023/09/03 06:06:14;;;;;;;207.68;199.48;;;;;;;26.95;62.33;99418.81;4944729;28;102933;-79
2023/09/03 06:08:43;;;;;;;202.55;194.60;;;;;;;27.13;62.13;99420.16;4963093;28;102757;-82
2023/09/03 06:11:11;;;;;;;196.32;188.35;;;;;;;27.24;61.75;99433.19;4961398;28;102694;-80
2023/09/03 06:13:41;;;;;;;212.20;203.48;;;;;;;26.80;62.88;99437.06;4962154;28;104416;-89
2023/09/03 06:16:10;;;;;;;199.43;191.73;;;;;;;25.32;70.70;99444.91;4961053;28;104102;-84
2023/09/03 06:18:38;;;;;;;243.52;234.38;;;;;;;25.93;70.13;99440.94;4964454;28;103909;-86
2023/09/03 06:21:06;;;;;;;208.00;200.10;;;;;;;26.63;67.67;99446.47;4963553;28;103184;-82
2023/09/03 06:23:34;;;;;;;213.23;204.88;;;;;;;25.91;69.95;99445.69;4963464;28;103534;-83
2023/09/03 06:26:02;;;;;;;192.52;185.02;;;;;;;26.14;68.88;99449.13;4961851;28;102802;-86
2023/09/03 06:28:31;;;;;;;265.90;255.67;;;;;;;25.16;74.26;99455.91;4965537;28;102999;-79
2023/09/03 06:31:01;;;;;;;253.15;243.57;;;;;;;25.73;72.80;99464.22;4961225;28;103391;-82
2023/09/03 06:33:36;;;;;;;196.90;189.10;;;;;;;25.56;71.81;99471.72;4963196;28;103182;-82
2023/09/03 06:36:06;;;;;;;172.10;165.30;;;;;;;25.88;70.41;99476.69;4943404;28;103361;-84
2023/09/03 06:38:34;;;;;;;121.50;116.53;;;;;;;26.14;69.03;99470.78;4964207;28;103007;-82
2023/09/03 06:41:02;;;;;;;110.97;106.55;;;;;;;26.93;66.10;99469.69;4961308;28;103297;-80
2023/09/03 06:43:32;;;;;;;92.25;88.60;;;;;;;27.09;64.71;99468.53;4962784;28;103145;-79
2023/09/03 06:46:02;;;;;;;91.20;87.50;;;;;;;27.42;64.34;99477.78;4964939;28;102830;-80
2023/09/03 06:48:30;;;;;;;84.68;81.18;;;;;;;27.37;64.28;99472.06;4963143;28;102988;-83
2023/09/03 06:50:58;;;;;;;87.55;83.88;;;;;;;27.08;64.65;99476.88;4964815;28;104468;-84
2023/09/03 06:53:26;;;;;;;109.15;104.75;;;;;;;27.16;67.30;99491.13;4965116;28;103262;-80
2023/09/03 06:55:54;;;;;;;76.20;72.90;;;;;;;27.85;63.76;99496.56;4961542;28;103153;-81
2023/09/03 06:58:21;;;;;;;59.58;56.83;;;;;;;28.06;62.74;99494.59;4967957;28;102593;-80
2023/09/03 07:00:50;;;;;;;51.25;49.05;;;;;;;28.33;61.49;99497.38;4962953;28;103758;-80
2023/09/03 07:03:23;;;;;;;49.50;47.20;;;;;;;27.49;64.97;99507.66;4965033;28;103204;-81
2023/09/03 07:05:51;;;;;;;58.08;55.50;;;;;;;27.88;63.73;99513.28;4964428;28;102764;-82
2023/09/03 07:08:19;;;;;;;53.13;50.63;;;;;;;28.11;62.45;99518.44;4969459;28;104646;-82
2023/09/03 07:10:47;;;;;;;48.67;46.47;;;;;;;28.39;61.34;99510.16;4972468;28;103278;-82
2023/09/03 07:13:15;;;;;;;47.08;44.88;;;;;;;28.25;61.81;99511.16;4972682;28;103469;-81
2023/09/03 07:15:44;;;;;;;50.17;47.97;;;;;;;28.50;61.10;99512.25;4968167;28;102877;-81
2023/09/03 07:18:13;;;;;;;49.28;47.08;;;;;;;28.51;60.50;99514.78;4980647;28;104451;-80
2023/09/03 07:20:45;;;;;;;41.50;39.63;;;;;;;28.83;58.86;99518.59;4972366;28;103165;-81
2023/09/03 07:23:13;;;;;;;42.88;40.97;;;;;;;28.84;58.19;99520.28;4953294;28;104553;-79
2023/09/03 07:25:43;;;;;;;54.37;52.00;;;;;;;27.88;62.86;99532.28;4969197;28;102933;-80
2023/09/03 07:28:11;;;;;;;52.00;49.70;;;;;;;28.69;60.40;99539.50;4974258;28;103431;-81
2023/09/03 07:30:41;;;;;;;51.97;49.60;;;;;;;28.75;59.22;99535.13;4970559;28;103211;-80
2023/09/03 07:33:09;;;;;;;52.95;50.47;;;;;;;28.42;60.24;99537.75;4967986;28;102903;-80
2023/09/03 07:35:39;;;;;;;56.42;54.00;;;;;;;29.31;57.66;99533.69;4977505;28;102671;-82
2023/09/03 07:38:11;;;;;;;58.53;55.92;;;;;;;29.65;56.76;99539.91;4966227;28;104185;-81
2023/09/03 07:40:39;;;;;;;59.35;56.92;;;;;;;29.95;55.40;99549.31;4958908;28;104270;-81
2023/09/03 07:43:07;;;;;;;66.57;63.88;;;;;;;29.63;55.75;99551.03;4970071;28;103188;-83
2023/09/03 07:45:35;;;;;;;72.82;69.70;;;;;;;29.30;55.90;99548.38;4966405;28;102652;-86
2023/09/03 07:48:03;;;;;;;75.47;72.43;;;;;;;29.95;55.25;99541.16;4966358;28;104408;-80
2023/09/03 07:50:32;;;;;;;70.80;67.87;;;;;;;30.26;55.36;99538.47;4962123;28;103380;-85
2023/09/03 07:53:00;;;;;;;63.47;60.87;;;;;;;29.34;57.77;99537.88;4965123;28;103245;-79
2023/09/03 07:55:32;;;;;;;68.85;65.93;;;;;;;29.47;58.31;99546.06;4967533;28;103054;-84
2023/09/03 07:58:00;;;;;;;70.95;68.05;;;;;;;29.45;56.83;99552.72;4965319;28;104275;-81
2023/09/03 08:00:29;;;;;;;69.17;66.27;;;;;;;28.98;59.33;99560.06;4963010;28;104416;-83
2023/09/03 08:02:56;;;;;;;74.22;71.25;;;;;;;30.28;56.14;99560.06;4948566;28;103407;-83
2023/09/03 08:05:25;;;;;;;54.60;52.30;;;;;;;31.53;52.54;99558.19;4966874;28;102574;-84
2023/09/03 08:07:53;;;;;;;81.43;78.13;;;;;;;31.06;53.35;99560.69;4968400;28;102736;-84
2023/09/03 08:10:23;;;;;;;76.43;73.23;;;;;;;32.30;50.68;99559.44;4962815;28;103880;-83
2023/09/03 08:12:52;;;;;;;66.28;63.58;;;;;;;32.83;48.86;99558.72;4949593;28;103432;-85
2023/09/03 08:15:20;;;;;;;116.03;111.40;;;;;;;31.33;51.99;99562.97;4964327;28;103603;-78
2023/09/03 08:18:08;;;;;;;113.80;109.40;;;;;;;32.32;51.15;99572.88;4964924;28;102823;-78
2023/09/03 08:20:36;;;;;;;128.60;123.28;;;;;;;31.43;51.61;99568.78;4965115;28;104220;-79
2023/09/03 08:23:04;;;;;;;137.38;131.77;;;;;;;31.29;52.87;99561.75;4965487;28;103146;-79
2023/09/03 08:25:32;;;;;;;137.60;131.90;;;;;;;31.96;50.83;99560.03;4947878;28;102744;-78
2023/09/03 08:28:01;;;;;;;149.50;143.30;;;;;;;32.23;51.42;99569.63;4966212;28;103450;-78
2023/09/03 08:30:29;;;;;;;146.97;140.83;;;;;;;32.48;49.65;99564.88;4964817;28;103832;-79
2023/09/03 08:32:57;;;;;;;125.28;120.05;;;;;;;31.87;51.79;99555.94;4965832;28;103179;-79
2023/09/03 08:35:25;;;;;;;127.83;122.07;;;;;;;32.60;49.80;99549.38;4964060;28;104250;-79
2023/09/03 08:37:53;;;;;;;121.60;116.43;;;;;;;33.56;48.99;99543.63;4949820;28;102864;-79
2023/09/03 08:40:23;;;;;;;114.22;109.30;;;;;;;33.65;47.88;99558.66;4966046;28;104005;-80
2023/09/03 08:42:54;;;;;;;129.77;124.23;;;;;;;33.19;49.29;99564.06;4963991;28;103131;-80
2023/09/03 08:45:25;;;;;;;84.82;81.18;;;;;;;34.81;45.93;99558.34;4965764;28;102996;-80
2023/09/03 08:47:53;;;;;;;44.65;42.65;;;;;;;35.54;44.11;99562.88;4962825;28;103059;-79
2023/09/03 08:50:23;;;;;;;91.57;87.67;;;;;;;34.29;46.43;99563.09;4963401;28;103913;-80
2023/09/03 08:52:53;;;;;;;118.13;113.00;;;;;;;32.92;48.64;99565.53;4963713;28;103973;-80
2023/09/03 08:55:22;;;;;;;154.75;148.25;;;;;;;32.34;49.88;99581.72;4962153;28;104090;-79
2023/09/03 08:57:54;;;;;;;152.00;145.57;;;;;;;32.19;49.75;99573.88;4966056;28;102836;-78
2023/09/03 09:00:21;;;;;;;125.03;119.70;;;;;;;33.14;48.20;99585.84;4961901;28;103889;-78
2023/09/03 09:02:52;;;;;;;95.50;91.40;;;;;;;34.27;45.71;99580.84;4962008;28;103193;-79
2023/09/03 09:05:20;;;;;;;145.47;139.13;;;;;;;32.29;50.61;99579.63;4961535;28;103138;-80
2023/09/03 09:07:49;;;;;;;154.70;148.10;;;;;;;33.16;49.51;99575.47;4959576;28;103960;-80
2023/09/03 09:10:22;;;;;;;121.33;116.13;;;;;;;34.60;46.15;99582.91;4963168;28;103258;-82
2023/09/03 09:12:53;;;;;;;96.70;92.57;;;;;;;34.98;45.52;99585.81;4947220;28;103183;-82
2023/09/03 09:15:20;;;;;;;137.55;131.48;;;;;;;32.51;49.52;99601.84;4963492;28;103570;-81
2023/09/03 09:17:49;;;;;;;153.48;146.80;;;;;;;33.64;48.10;99594.50;4945515;28;104030;-83
2023/09/03 09:20:19;;;;;;;101.20;96.80;;;;;;;35.27;45.65;99587.44;4962452;28;103334;-84
2023/09/03 09:22:48;;;;;;;86.22;82.43;;;;;;;35.49;43.61;99593.03;4965215;28;103711;-83
2023/09/03 09:25:21;;;;;;;60.30;57.70;;;;;;;36.27;43.20;99594.75;4967544;28;103035;-82
2023/09/03 09:27:50;;;;;;;60.53;57.90;;;;;;;33.81;44.44;99590.78;4979442;28;103155;-79
2023/09/03 09:30:21;;;;;;;79.20;75.75;;;;;;;32.79;46.96;99596.66;4977800;28;102714;-80
2023/09/03 09:33:02;;;;;;;84.88;81.13;;;;;;;33.26;48.22;99592.19;4974428;28;104037;-79
2023/09/03 09:35:31;;;;;;;64.07;61.30;;;;;;;33.87;45.38;99590.91;4976213;28;102496;-78
2023/09/03 09:38:05;;;;;;;76.10;72.70;;;;;;;32.57;48.02;99600.97;4961440;28;102519;-78
2023/09/03 09:40:34;;;;;;;78.43;74.90;;;;;;;32.04;49.58;99603.50;4974753;28;104074;-78
2023/09/03 09:43:04;;;;;;;68.93;65.88;;;;;;;33.77;46.73;99600.56;4974622;28;102808;-79
2023/09/03 09:45:45;;;;;;;60.10;57.47;;;;;;;34.42;45.52;99594.03;4958255;28;102539;-79
2023/09/03 09:48:13;;;;;;;44.85;42.90;;;;;;;35.14;42.99;99595.19;4974665;28;103757;-79
2023/09/03 09:50:45;;;;;;;88.05;84.15;;;;;;;33.52;47.77;99604.56;4974916;28;103014;-79
2023/09/03 09:53:24;;;;;;;43.83;41.73;;;;;;;34.90;43.69;99595.28;4958701;28;104070;-78
2023/09/03 09:55:59;;;;;;;56.53;54.03;;;;;;;35.35;43.94;99595.28;4973164;28;103029;-79
2023/09/03 09:58:37;;;;;;;67.32;64.53;;;;;;;33.91;44.81;99600.31;4968999;28;104719;-80
2023/09/03 10:01:05;;;;;;;51.35;49.15;;;;;;;35.66;43.12;99593.88;4965716;28;104221;-86
2023/09/03 10:03:42;;;;;;;70.40;67.50;;;;;;;35.11;42.92;99598.44;4962243;28;103316;-86
2023/09/03 10:06:13;;;;;;;81.15;77.93;;;;;;;33.92;45.22;99594.59;4969759;28;103076;-89
2023/09/03 10:08:43;;;;;;;66.57;63.83;;;;;;;35.81;42.81;99591.34;4961620;28;103755;-88
2023/09/03 10:11:11;;;;;;;46.88;44.83;;;;;;;36.12;40.37;99591.81;4964918;28;104095;-88
2023/09/03 10:13:41;;;;;;;92.00;88.40;;;;;;;33.95;45.45;99596.84;4964946;28;103015;-85
2023/09/03 10:16:10;;;;;;;55.37;53.17;;;;;;;36.21;41.01;99595.78;4967023;28;102755;-85
2023/09/03 10:18:40;;;;;;;30.73;29.52;;;;;;;37.17;38.45;99592.19;4950590;28;103976;-84
2023/09/03 10:21:08;;;;;;;53.40;51.20;;;;;;;35.78;40.59;99591.03;4961781;28;103279;-82
2023/09/03 10:23:41;;;;;;;52.70;50.60;;;;;;;36.56;40.81;99582.47;4963800;28;103146;-82
2023/09/03 10:26:24;;;;;;;44.85;43.13;;;;;;;36.54;39.66;99580.00;4963732;28;103377;-81
2023/09/03 10:28:56;;;;;;;39.22;37.63;;;;;;;37.22;39.10;99574.88;4962876;28;103247;-83
2023/09/03 10:31:34;;;;;;;66.47;63.88;;;;;;;36.03;41.11;99573.00;4945272;28;104146;-91
2023/09/03 10:34:02;;;;;;;58.53;56.13;;;;;;;36.09;40.68;99573.06;4962551;28;103162;-81
2023/09/03 10:36:30;;;;;;;85.30;82.10;;;;;;;33.64;43.74;99562.44;4963466;28;103885;-86
2023/09/03 10:39:22;;;;;;;52.90;50.90;;;;;;;35.63;40.70;99553.16;4964252;28;102853;-81
2023/09/03 10:42:27;;;;;;;55.40;53.30;;;;;;;35.78;39.65;99563.53;4961599;28;103526;-79
2023/09/03 10:45:03;;;;;;;56.63;54.53;;;;;;;35.38;40.64;99569.22;4960185;28;103104;-81
2023/09/03 10:47:31;;;;;;;71.43;68.70;;;;;;;33.96;42.22;99579.34;4943596;28;102787;-81
2023/09/03 10:49:59;;;;;;;79.53;76.53;;;;;;;34.60;42.04;99570.03;4963164;28;104085;-81
2023/09/03 10:52:40;;;;;;;81.10;78.00;;;;;;;33.23;44.85;99570.75;4959879;28;103373;-81
2023/09/03 10:55:17;;;;;;;94.35;90.88;;;;;;;32.02;44.14;99572.84;4961851;28;103196;-81
2023/09/03 10:57:46;;;;;;;75.22;72.43;;;;;;;32.14;45.08;99560.09;4963828;28;103173;-80
2023/09/03 11:00:20;;;;;;;63.95;61.53;;;;;;;34.00;43.07;99565.97;4962987;28;103831;-80
2023/09/03 11:02:48;;;;;;;39.95;38.45;;;;;;;34.88;41.20;99564.50;4964145;28;103209;-80
2023/09/03 11:05:20;;;;;;;51.83;49.78;;;;;;;34.11;41.06;99567.88;4963394;28;103350;-81
2023/09/03 11:07:50;;;;;;;46.00;44.20;;;;;;;33.94;41.47;99567.78;4960967;28;102887;-81
2023/09/03 11:10:42;;;;;;;52.08;50.10;;;;;;;33.84;39.69;99570.28;4957952;28;104172;-79
2023/09/03 11:13:11;;;;;;;73.47;70.68;;;;;;;33.38;43.39;99573.84;4956951;28;103146;-80
2023/09/03 11:15:57;;;;;;;29.33;28.23;;;;;;;36.43;38.51;99560.84;4962965;28;103139;-83
2023/09/03 11:18:26;;;;;;;51.75;49.85;;;;;;;34.99;40.58;99570.16;4967229;28;103507;-77